sensor_id;sensor_type;location;lat;lon;timestamp;P1;durP1;ratioP1;P2;durP2;ratioP2
3415;SDS011;1721;51.238;9.562;2022-12-20T00:01:48;11.47;;;3.97;;
3415;SDS011;1721;51.238;9.562;2022-12-20T00:04:14;9.77;;;4.67;;
3415;SDS011;1721;51.238;9.562;2022-12-20T00:06:39;17.60;;;4.80;;
3415;SDS011;1721;51.238;9.562;2022-12-20T00:09:06;15.40;;;3.63;;
3415;SDS011;1721;51.238;9.562;2022-12-20T00:11:33;15.60;;;5.13;;
3415;SDS011;1721;51.238;9.562;2022-12-20T00:13:59;10.48;;;4.07;;
3415;SDS011;1721;51.238;9.562;2022-12-20T00:16:25;10.40;;;4.13;;
3415;SDS011;1721;51.238;9.562;2022-12-20T00:18:53;10.80;;;4.07;;
3415;SDS011;1721;51.238;9.562;2022-12-20T00:21:21;11.65;;;4.50;;
3415;SDS011;1721;51.238;9.562;2022-12-20T00:23:47;10.20;;;3.65;;
3415;SDS011;1721;51.238;9.562;2022-12-20T00:26:14;8.00;;;3.50;;
3415;SDS011;1721;51.238;9.562;2022-12-20T00:28:41;10.57;;;4.53;;
3415;SDS011;1721;51.238;9.562;2022-12-20T00:31:09;8.52;;;4.15;;
3415;SDS011;1721;51.238;9.562;2022-12-20T00:33:36;12.25;;;4.25;;
3415;SDS011;1721;51.238;9.562;2022-12-20T00:36:03;11.52;;;4.93;;
3415;SDS011;1721;51.238;9.562;2022-12-20T00:38:30;9.63;;;4.18;;
3415;SDS011;1721;51.238;9.562;2022-12-20T00:41:04;18.58;;;4.55;;
3415;SDS011;1721;51.238;9.562;2022-12-20T00:43:32;11.32;;;3.95;;
3415;SDS011;1721;51.238;9.562;2022-12-20T00:45:59;8.45;;;3.17;;
3415;SDS011;1721;51.238;9.562;2022-12-20T00:48:25;16.73;;;4.43;;
3415;SDS011;1721;51.238;9.562;2022-12-20T00:50:51;10.63;;;4.15;;
3415;SDS011;1721;51.238;9.562;2022-12-20T00:53:21;11.48;;;4.70;;
3415;SDS011;1721;51.238;9.562;2022-12-20T00:55:46;10.37;;;3.93;;
3415;SDS011;1721;51.238;9.562;2022-12-20T00:58:12;10.90;;;4.50;;
3415;SDS011;1721;51.238;9.562;2022-12-20T01:00:38;11.57;;;4.13;;
3415;SDS011;1721;51.238;9.562;2022-12-20T01:03:04;10.60;;;2.80;;
3415;SDS011;1721;51.238;9.562;2022-12-20T01:05:30;18.25;;;6.15;;
3415;SDS011;1721;51.238;9.562;2022-12-20T01:07:56;10.98;;;4.07;;
3415;SDS011;1721;51.238;9.562;2022-12-20T01:10:22;10.40;;;3.87;;
3415;SDS011;1721;51.238;9.562;2022-12-20T01:12:47;10.43;;;3.67;;
3415;SDS011;1721;51.238;9.562;2022-12-20T01:15:13;9.40;;;3.73;;
3415;SDS011;1721;51.238;9.562;2022-12-20T01:17:39;11.00;;;3.92;;
3415;SDS011;1721;51.238;9.562;2022-12-20T01:20:05;10.10;;;4.10;;
3415;SDS011;1721;51.238;9.562;2022-12-20T01:22:31;12.25;;;3.90;;
3415;SDS011;1721;51.238;9.562;2022-12-20T01:24:57;8.07;;;3.63;;
3415;SDS011;1721;51.238;9.562;2022-12-20T01:27:22;10.87;;;3.27;;
3415;SDS011;1721;51.238;9.562;2022-12-20T01:29:48;14.10;;;2.83;;
3415;SDS011;1721;51.238;9.562;2022-12-20T01:32:13;14.10;;;4.70;;
3415;SDS011;1721;51.238;9.562;2022-12-20T01:34:39;9.13;;;3.73;;
3415;SDS011;1721;51.238;9.562;2022-12-20T01:37:04;10.67;;;4.83;;
3415;SDS011;1721;51.238;9.562;2022-12-20T01:39:30;8.80;;;3.30;;
3415;SDS011;1721;51.238;9.562;2022-12-20T01:41:55;10.70;;;3.47;;
3415;SDS011;1721;51.238;9.562;2022-12-20T01:46:47;22.20;;;4.03;;
3415;SDS011;1721;51.238;9.562;2022-12-20T01:51:42;10.97;;;3.97;;
3415;SDS011;1721;51.238;9.562;2022-12-20T01:54:12;9.38;;;3.85;;
3415;SDS011;1721;51.238;9.562;2022-12-20T01:56:43;13.45;;;4.50;;
3415;SDS011;1721;51.238;9.562;2022-12-20T01:59:12;11.23;;;3.35;;
3415;SDS011;1721;51.238;9.562;2022-12-20T02:01:39;14.80;;;2.88;;
3415;SDS011;1721;51.238;9.562;2022-12-20T02:04:06;12.13;;;3.80;;
3415;SDS011;1721;51.238;9.562;2022-12-20T02:06:32;11.60;;;3.90;;
3415;SDS011;1721;51.238;9.562;2022-12-20T02:08:58;9.27;;;3.40;;
3415;SDS011;1721;51.238;9.562;2022-12-20T02:11:39;7.85;;;3.40;;
3415;SDS011;1721;51.238;9.562;2022-12-20T02:22:45;6.90;;;2.20;;
3415;SDS011;1721;51.238;9.562;2022-12-20T02:27:47;7.07;;;2.60;;
3415;SDS011;1721;51.238;9.562;2022-12-20T02:30:18;10.25;;;3.28;;
3415;SDS011;1721;51.238;9.562;2022-12-20T02:32:50;10.13;;;3.10;;
3415;SDS011;1721;51.238;9.562;2022-12-20T02:35:32;7.78;;;2.28;;
3415;SDS011;1721;51.238;9.562;2022-12-20T02:38:00;9.35;;;3.92;;
3415;SDS011;1721;51.238;9.562;2022-12-20T02:40:46;10.75;;;3.90;;
3415;SDS011;1721;51.238;9.562;2022-12-20T02:43:12;13.77;;;4.70;;
3415;SDS011;1721;51.238;9.562;2022-12-20T02:45:57;7.45;;;3.15;;
3415;SDS011;1721;51.238;9.562;2022-12-20T02:48:24;9.02;;;2.45;;
3415;SDS011;1721;51.238;9.562;2022-12-20T02:50:53;14.32;;;3.17;;
3415;SDS011;1721;51.238;9.562;2022-12-20T02:53:21;8.25;;;2.80;;
3415;SDS011;1721;51.238;9.562;2022-12-20T02:55:56;9.57;;;3.50;;
3415;SDS011;1721;51.238;9.562;2022-12-20T03:01:16;11.55;;;4.53;;
3415;SDS011;1721;51.238;9.562;2022-12-20T03:03:49;10.68;;;2.67;;
3415;SDS011;1721;51.238;9.562;2022-12-20T03:06:16;14.98;;;4.15;;
3415;SDS011;1721;51.238;9.562;2022-12-20T03:08:42;10.93;;;3.57;;
3415;SDS011;1721;51.238;9.562;2022-12-20T03:11:08;9.47;;;3.10;;
3415;SDS011;1721;51.238;9.562;2022-12-20T03:13:33;5.53;;;2.70;;
3415;SDS011;1721;51.238;9.562;2022-12-20T03:15:59;10.70;;;3.70;;
3415;SDS011;1721;51.238;9.562;2022-12-20T03:18:24;6.60;;;3.33;;
3415;SDS011;1721;51.238;9.562;2022-12-20T03:20:50;7.63;;;3.97;;
3415;SDS011;1721;51.238;9.562;2022-12-20T03:23:15;6.90;;;3.07;;
3415;SDS011;1721;51.238;9.562;2022-12-20T03:25:41;7.83;;;2.70;;
3415;SDS011;1721;51.238;9.562;2022-12-20T03:28:06;11.33;;;3.67;;
3415;SDS011;1721;51.238;9.562;2022-12-20T03:30:32;6.80;;;2.30;;
3415;SDS011;1721;51.238;9.562;2022-12-20T03:32:57;13.00;;;3.93;;
3415;SDS011;1721;51.238;9.562;2022-12-20T03:35:23;8.27;;;4.03;;
3415;SDS011;1721;51.238;9.562;2022-12-20T03:37:49;5.93;;;2.20;;
3415;SDS011;1721;51.238;9.562;2022-12-20T03:40:14;11.40;;;2.97;;
3415;SDS011;1721;51.238;9.562;2022-12-20T03:42:40;7.53;;;3.13;;
3415;SDS011;1721;51.238;9.562;2022-12-20T03:45:06;9.47;;;4.00;;
3415;SDS011;1721;51.238;9.562;2022-12-20T03:47:32;7.80;;;2.53;;
3415;SDS011;1721;51.238;9.562;2022-12-20T03:49:57;9.73;;;3.37;;
3415;SDS011;1721;51.238;9.562;2022-12-20T03:52:23;5.90;;;2.60;;
3415;SDS011;1721;51.238;9.562;2022-12-20T03:54:49;8.80;;;3.53;;
3415;SDS011;1721;51.238;9.562;2022-12-20T03:57:14;6.73;;;2.50;;
3415;SDS011;1721;51.238;9.562;2022-12-20T03:59:40;14.53;;;3.30;;
3415;SDS011;1721;51.238;9.562;2022-12-20T04:02:06;9.43;;;3.60;;
3415;SDS011;1721;51.238;9.562;2022-12-20T04:04:31;9.07;;;3.00;;
3415;SDS011;1721;51.238;9.562;2022-12-20T04:06:57;7.37;;;2.80;;
3415;SDS011;1721;51.238;9.562;2022-12-20T04:09:22;7.70;;;3.87;;
3415;SDS011;1721;51.238;9.562;2022-12-20T04:11:48;9.63;;;3.60;;
3415;SDS011;1721;51.238;9.562;2022-12-20T04:14:13;7.87;;;3.20;;
3415;SDS011;1721;51.238;9.562;2022-12-20T04:16:39;8.03;;;3.80;;
3415;SDS011;1721;51.238;9.562;2022-12-20T04:19:04;13.23;;;3.40;;
3415;SDS011;1721;51.238;9.562;2022-12-20T04:21:31;9.83;;;3.23;;
3415;SDS011;1721;51.238;9.562;2022-12-20T04:23:58;13.15;;;4.00;;
3415;SDS011;1721;51.238;9.562;2022-12-20T04:26:25;10.35;;;3.72;;
3415;SDS011;1721;51.238;9.562;2022-12-20T04:28:51;12.88;;;3.88;;
3415;SDS011;1721;51.238;9.562;2022-12-20T04:31:17;9.03;;;3.17;;
3415;SDS011;1721;51.238;9.562;2022-12-20T04:33:43;8.00;;;3.57;;
3415;SDS011;1721;51.238;9.562;2022-12-20T04:36:09;8.45;;;3.35;;
3415;SDS011;1721;51.238;9.562;2022-12-20T04:38:35;12.13;;;3.20;;
3415;SDS011;1721;51.238;9.562;2022-12-20T04:41:00;8.37;;;2.63;;
3415;SDS011;1721;51.238;9.562;2022-12-20T04:43:26;9.27;;;3.60;;
3415;SDS011;1721;51.238;9.562;2022-12-20T04:45:52;9.97;;;3.83;;
3415;SDS011;1721;51.238;9.562;2022-12-20T04:48:22;6.05;;;2.45;;
3415;SDS011;1721;51.238;9.562;2022-12-20T04:50:51;11.45;;;3.10;;
3415;SDS011;1721;51.238;9.562;2022-12-20T04:53:17;7.40;;;2.33;;
3415;SDS011;1721;51.238;9.562;2022-12-20T04:56:02;6.90;;;2.67;;
3415;SDS011;1721;51.238;9.562;2022-12-20T04:58:28;9.10;;;2.63;;
3415;SDS011;1721;51.238;9.562;2022-12-20T05:00:54;7.10;;;2.63;;
3415;SDS011;1721;51.238;9.562;2022-12-20T05:03:20;7.40;;;2.60;;
3415;SDS011;1721;51.238;9.562;2022-12-20T05:05:47;5.00;;;1.98;;
3415;SDS011;1721;51.238;9.562;2022-12-20T05:08:13;5.90;;;2.60;;
3415;SDS011;1721;51.238;9.562;2022-12-20T05:10:39;13.07;;;3.13;;
3415;SDS011;1721;51.238;9.562;2022-12-20T05:13:04;10.20;;;3.60;;
3415;SDS011;1721;51.238;9.562;2022-12-20T05:15:30;5.10;;;2.33;;
3415;SDS011;1721;51.238;9.562;2022-12-20T05:17:56;9.37;;;2.80;;
3415;SDS011;1721;51.238;9.562;2022-12-20T05:20:27;12.27;;;3.10;;
3415;SDS011;1721;51.238;9.562;2022-12-20T05:22:54;7.30;;;2.83;;
3415;SDS011;1721;51.238;9.562;2022-12-20T05:25:40;8.65;;;2.58;;
3415;SDS011;1721;51.238;9.562;2022-12-20T05:28:27;12.20;;;3.88;;
3415;SDS011;1721;51.238;9.562;2022-12-20T05:30:53;6.13;;;2.55;;
3415;SDS011;1721;51.238;9.562;2022-12-20T05:33:19;6.47;;;2.70;;
3415;SDS011;1721;51.238;9.562;2022-12-20T05:35:44;8.77;;;3.20;;
3415;SDS011;1721;51.238;9.562;2022-12-20T05:38:10;7.57;;;2.40;;
3415;SDS011;1721;51.238;9.562;2022-12-20T05:40:36;10.67;;;3.63;;
3415;SDS011;1721;51.238;9.562;2022-12-20T05:43:02;11.50;;;3.20;;
3415;SDS011;1721;51.238;9.562;2022-12-20T05:45:27;11.20;;;2.73;;
3415;SDS011;1721;51.238;9.562;2022-12-20T05:47:53;6.13;;;2.63;;
3415;SDS011;1721;51.238;9.562;2022-12-20T05:50:18;8.23;;;2.83;;
3415;SDS011;1721;51.238;9.562;2022-12-20T05:52:44;6.47;;;2.47;;
3415;SDS011;1721;51.238;9.562;2022-12-20T05:55:09;7.23;;;3.03;;
3415;SDS011;1721;51.238;9.562;2022-12-20T05:57:35;7.80;;;2.93;;
3415;SDS011;1721;51.238;9.562;2022-12-20T06:00:01;8.30;;;2.70;;
3415;SDS011;1721;51.238;9.562;2022-12-20T06:02:28;4.97;;;1.73;;
3415;SDS011;1721;51.238;9.562;2022-12-20T06:04:54;6.50;;;2.60;;
3415;SDS011;1721;51.238;9.562;2022-12-20T06:07:19;6.83;;;2.93;;
3415;SDS011;1721;51.238;9.562;2022-12-20T06:09:45;9.63;;;3.40;;
3415;SDS011;1721;51.238;9.562;2022-12-20T06:12:11;6.43;;;2.60;;
3415;SDS011;1721;51.238;9.562;2022-12-20T06:14:37;7.43;;;3.05;;
3415;SDS011;1721;51.238;9.562;2022-12-20T06:17:03;11.33;;;2.57;;
3415;SDS011;1721;51.238;9.562;2022-12-20T06:19:28;5.23;;;2.20;;
3415;SDS011;1721;51.238;9.562;2022-12-20T06:21:54;8.57;;;3.20;;
3415;SDS011;1721;51.238;9.562;2022-12-20T06:24:19;8.00;;;2.47;;
3415;SDS011;1721;51.238;9.562;2022-12-20T06:26:49;6.45;;;2.00;;
3415;SDS011;1721;51.238;9.562;2022-12-20T06:29:15;9.15;;;3.35;;
3415;SDS011;1721;51.238;9.562;2022-12-20T06:31:42;9.50;;;3.10;;
3415;SDS011;1721;51.238;9.562;2022-12-20T06:34:07;5.53;;;2.40;;
3415;SDS011;1721;51.238;9.562;2022-12-20T06:36:33;7.03;;;2.77;;
3415;SDS011;1721;51.238;9.562;2022-12-20T06:38:59;6.10;;;2.07;;
3415;SDS011;1721;51.238;9.562;2022-12-20T06:41:25;12.47;;;3.13;;
3415;SDS011;1721;51.238;9.562;2022-12-20T06:43:50;8.50;;;2.77;;
3415;SDS011;1721;51.238;9.562;2022-12-20T06:46:16;9.50;;;2.30;;
3415;SDS011;1721;51.238;9.562;2022-12-20T06:48:41;6.80;;;2.40;;
3415;SDS011;1721;51.238;9.562;2022-12-20T06:51:07;10.00;;;3.50;;
3415;SDS011;1721;51.238;9.562;2022-12-20T06:53:32;8.07;;;3.73;;
3415;SDS011;1721;51.238;9.562;2022-12-20T06:55:58;9.50;;;2.47;;
3415;SDS011;1721;51.238;9.562;2022-12-20T06:58:23;4.50;;;2.03;;
3415;SDS011;1721;51.238;9.562;2022-12-20T07:00:49;13.90;;;2.80;;
3415;SDS011;1721;51.238;9.562;2022-12-20T07:03:14;6.90;;;2.70;;
3415;SDS011;1721;51.238;9.562;2022-12-20T07:05:40;14.23;;;3.47;;
3415;SDS011;1721;51.238;9.562;2022-12-20T07:08:06;7.83;;;2.30;;
3415;SDS011;1721;51.238;9.562;2022-12-20T07:10:32;8.60;;;2.87;;
3415;SDS011;1721;51.238;9.562;2022-12-20T07:12:59;15.70;;;4.43;;
3415;SDS011;1721;51.238;9.562;2022-12-20T07:15:24;6.60;;;3.20;;
3415;SDS011;1721;51.238;9.562;2022-12-20T07:17:50;9.80;;;3.07;;
3415;SDS011;1721;51.238;9.562;2022-12-20T07:20:16;9.70;;;3.80;;
3415;SDS011;1721;51.238;9.562;2022-12-20T07:22:42;9.02;;;2.63;;
3415;SDS011;1721;51.238;9.562;2022-12-20T07:25:08;8.90;;;2.93;;
3415;SDS011;1721;51.238;9.562;2022-12-20T07:27:34;8.05;;;2.17;;
3415;SDS011;1721;51.238;9.562;2022-12-20T07:30:00;11.13;;;3.07;;
3415;SDS011;1721;51.238;9.562;2022-12-20T07:32:26;5.50;;;2.47;;
3415;SDS011;1721;51.238;9.562;2022-12-20T07:34:51;4.93;;;2.07;;
3415;SDS011;1721;51.238;9.562;2022-12-20T07:37:17;7.87;;;3.47;;
3415;SDS011;1721;51.238;9.562;2022-12-20T07:39:43;6.17;;;2.47;;
3415;SDS011;1721;51.238;9.562;2022-12-20T07:42:08;7.03;;;2.43;;
3415;SDS011;1721;51.238;9.562;2022-12-20T07:44:34;7.60;;;1.92;;
3415;SDS011;1721;51.238;9.562;2022-12-20T07:47:00;10.37;;;2.80;;
3415;SDS011;1721;51.238;9.562;2022-12-20T07:49:25;4.53;;;1.90;;
3415;SDS011;1721;51.238;9.562;2022-12-20T07:51:53;6.57;;;2.63;;
3415;SDS011;1721;51.238;9.562;2022-12-20T07:54:26;8.70;;;3.05;;
3415;SDS011;1721;51.238;9.562;2022-12-20T07:56:57;7.45;;;2.38;;
3415;SDS011;1721;51.238;9.562;2022-12-20T07:59:32;10.10;;;3.10;;
3415;SDS011;1721;51.238;9.562;2022-12-20T08:02:02;7.82;;;2.75;;
3415;SDS011;1721;51.238;9.562;2022-12-20T08:04:29;11.60;;;2.22;;
3415;SDS011;1721;51.238;9.562;2022-12-20T08:06:55;6.88;;;2.90;;
3415;SDS011;1721;51.238;9.562;2022-12-20T08:09:23;5.05;;;2.00;;
3415;SDS011;1721;51.238;9.562;2022-12-20T08:11:54;8.40;;;2.85;;
3415;SDS011;1721;51.238;9.562;2022-12-20T08:14:21;8.23;;;2.53;;
3415;SDS011;1721;51.238;9.562;2022-12-20T08:16:47;8.30;;;2.93;;
3415;SDS011;1721;51.238;9.562;2022-12-20T08:19:13;5.30;;;2.22;;
3415;SDS011;1721;51.238;9.562;2022-12-20T08:21:38;6.67;;;3.07;;
3415;SDS011;1721;51.238;9.562;2022-12-20T08:24:04;8.03;;;3.57;;
3415;SDS011;1721;51.238;9.562;2022-12-20T08:26:30;6.93;;;2.30;;
3415;SDS011;1721;51.238;9.562;2022-12-20T08:28:55;6.73;;;2.17;;
3415;SDS011;1721;51.238;9.562;2022-12-20T08:31:21;9.90;;;3.50;;
3415;SDS011;1721;51.238;9.562;2022-12-20T08:33:47;6.53;;;2.50;;
3415;SDS011;1721;51.238;9.562;2022-12-20T08:36:13;7.10;;;3.07;;
3415;SDS011;1721;51.238;9.562;2022-12-20T08:38:39;9.57;;;2.50;;
3415;SDS011;1721;51.238;9.562;2022-12-20T08:41:06;5.30;;;2.25;;
3415;SDS011;1721;51.238;9.562;2022-12-20T08:43:36;6.97;;;1.85;;
3415;SDS011;1721;51.238;9.562;2022-12-20T08:46:03;7.32;;;2.05;;
3415;SDS011;1721;51.238;9.562;2022-12-20T08:48:30;5.00;;;2.13;;
3415;SDS011;1721;51.238;9.562;2022-12-20T08:50:57;4.90;;;2.10;;
3415;SDS011;1721;51.238;9.562;2022-12-20T08:53:25;5.88;;;2.03;;
3415;SDS011;1721;51.238;9.562;2022-12-20T08:55:51;9.02;;;2.70;;
3415;SDS011;1721;51.238;9.562;2022-12-20T08:58:17;5.60;;;1.90;;
3415;SDS011;1721;51.238;9.562;2022-12-20T09:00:43;5.38;;;2.00;;
3415;SDS011;1721;51.238;9.562;2022-12-20T09:03:09;5.88;;;2.35;;
3415;SDS011;1721;51.238;9.562;2022-12-20T09:05:35;4.97;;;1.80;;
3415;SDS011;1721;51.238;9.562;2022-12-20T09:08:07;5.22;;;1.80;;
3415;SDS011;1721;51.238;9.562;2022-12-20T09:10:32;4.40;;;1.87;;
3415;SDS011;1721;51.238;9.562;2022-12-20T09:12:58;4.40;;;1.47;;
3415;SDS011;1721;51.238;9.562;2022-12-20T09:15:23;4.97;;;2.20;;
3415;SDS011;1721;51.238;9.562;2022-12-20T09:17:51;4.57;;;1.80;;
3415;SDS011;1721;51.238;9.562;2022-12-20T09:20:17;5.17;;;1.87;;
3415;SDS011;1721;51.238;9.562;2022-12-20T09:22:42;6.10;;;2.33;;
3415;SDS011;1721;51.238;9.562;2022-12-20T09:25:08;5.83;;;1.83;;
3415;SDS011;1721;51.238;9.562;2022-12-20T09:27:34;7.57;;;2.17;;
3415;SDS011;1721;51.238;9.562;2022-12-20T09:29:59;6.40;;;2.10;;
3415;SDS011;1721;51.238;9.562;2022-12-20T09:32:25;5.97;;;2.03;;
3415;SDS011;1721;51.238;9.562;2022-12-20T09:34:50;7.27;;;2.50;;
3415;SDS011;1721;51.238;9.562;2022-12-20T09:37:16;15.10;;;2.10;;
3415;SDS011;1721;51.238;9.562;2022-12-20T09:39:42;4.90;;;1.40;;
3415;SDS011;1721;51.238;9.562;2022-12-20T09:42:07;5.10;;;1.73;;
3415;SDS011;1721;51.238;9.562;2022-12-20T09:44:34;4.57;;;1.70;;
3415;SDS011;1721;51.238;9.562;2022-12-20T09:47:05;7.30;;;2.08;;
3415;SDS011;1721;51.238;9.562;2022-12-20T09:49:47;11.57;;;2.25;;
3415;SDS011;1721;51.238;9.562;2022-12-20T10:01:14;4.72;;;2.05;;
3415;SDS011;1721;51.238;9.562;2022-12-20T10:03:48;6.50;;;2.17;;
3415;SDS011;1721;51.238;9.562;2022-12-20T10:08:57;5.63;;;1.50;;
3415;SDS011;1721;51.238;9.562;2022-12-20T10:14:27;5.05;;;2.03;;
3415;SDS011;1721;51.238;9.562;2022-12-20T10:17:12;4.35;;;1.30;;
3415;SDS011;1721;51.238;9.562;2022-12-20T10:20:06;7.15;;;1.90;;
3415;SDS011;1721;51.238;9.562;2022-12-20T10:25:22;6.45;;;1.65;;
3415;SDS011;1721;51.238;9.562;2022-12-20T10:27:49;4.35;;;2.22;;
3415;SDS011;1721;51.238;9.562;2022-12-20T10:30:19;5.13;;;2.22;;
3415;SDS011;1721;51.238;9.562;2022-12-20T10:32:47;5.28;;;1.42;;
3415;SDS011;1721;51.238;9.562;2022-12-20T10:35:26;6.68;;;2.05;;
3415;SDS011;1721;51.238;9.562;2022-12-20T10:38:06;9.57;;;1.17;;
3415;SDS011;1721;51.238;9.562;2022-12-20T10:40:47;4.07;;;1.73;;
3415;SDS011;1721;51.238;9.562;2022-12-20T10:43:22;6.38;;;2.28;;
3415;SDS011;1721;51.238;9.562;2022-12-20T10:45:55;6.78;;;2.65;;
3415;SDS011;1721;51.238;9.562;2022-12-20T10:53:33;7.10;;;2.88;;
3415;SDS011;1721;51.238;9.562;2022-12-20T10:56:11;6.13;;;2.15;;
3415;SDS011;1721;51.238;9.562;2022-12-20T10:58:40;5.20;;;1.90;;
3415;SDS011;1721;51.238;9.562;2022-12-20T11:01:13;4.00;;;1.40;;
3415;SDS011;1721;51.238;9.562;2022-12-20T11:06:38;7.30;;;2.20;;
3415;SDS011;1721;51.238;9.562;2022-12-20T11:09:52;4.60;;;2.30;;
3415;SDS011;1721;51.238;9.562;2022-12-20T11:12:05;13.48;;;3.55;;
3415;SDS011;1721;51.238;9.562;2022-12-20T11:14:38;5.55;;;2.15;;
3415;SDS011;1721;51.238;9.562;2022-12-20T11:31:24;5.45;;;1.80;;
3415;SDS011;1721;51.238;9.562;2022-12-20T11:36:53;3.45;;;1.30;;
3415;SDS011;1721;51.238;9.562;2022-12-20T11:39:31;9.23;;;1.98;;
3415;SDS011;1721;51.238;9.562;2022-12-20T11:44:53;4.07;;;1.50;;
3415;SDS011;1721;51.238;9.562;2022-12-20T11:53:33;6.40;;;1.60;;
3415;SDS011;1721;51.238;9.562;2022-12-20T11:56:11;4.63;;;1.55;;
3415;SDS011;1721;51.238;9.562;2022-12-20T11:58:51;5.43;;;1.45;;
3415;SDS011;1721;51.238;9.562;2022-12-20T12:01:36;5.18;;;1.50;;
3415;SDS011;1721;51.238;9.562;2022-12-20T12:06:34;5.70;;;1.50;;
3415;SDS011;1721;51.238;9.562;2022-12-20T12:09:07;5.05;;;1.77;;
3415;SDS011;1721;51.238;9.562;2022-12-20T12:12:03;4.55;;;1.55;;
3415;SDS011;1721;51.238;9.562;2022-12-20T12:14:56;9.10;;;2.55;;
3415;SDS011;1721;51.238;9.562;2022-12-20T12:17:37;7.85;;;1.50;;
3415;SDS011;1721;51.238;9.562;2022-12-20T12:22:39;5.50;;;1.40;;
3415;SDS011;1721;51.238;9.562;2022-12-20T12:25:08;4.10;;;1.60;;
3415;SDS011;1721;51.238;9.562;2022-12-20T12:27:38;3.25;;;1.10;;
3415;SDS011;1721;51.238;9.562;2022-12-20T12:30:03;4.93;;;1.57;;
3415;SDS011;1721;51.238;9.562;2022-12-20T12:32:31;4.65;;;1.40;;
3415;SDS011;1721;51.238;9.562;2022-12-20T12:35:16;5.15;;;1.48;;
3415;SDS011;1721;51.238;9.562;2022-12-20T12:38:14;6.40;;;1.85;;
3415;SDS011;1721;51.238;9.562;2022-12-20T12:46:41;4.75;;;1.55;;
3415;SDS011;1721;51.238;9.562;2022-12-20T12:49:09;6.00;;;1.50;;
3415;SDS011;1721;51.238;9.562;2022-12-20T12:51:41;3.20;;;1.10;;
3415;SDS011;1721;51.238;9.562;2022-12-20T12:56:47;4.28;;;1.75;;
3415;SDS011;1721;51.238;9.562;2022-12-20T13:04:28;5.28;;;1.48;;
3415;SDS011;1721;51.238;9.562;2022-12-20T13:07:57;4.93;;;1.40;;
3415;SDS011;1721;51.238;9.562;2022-12-20T13:12:52;4.55;;;1.33;;
3415;SDS011;1721;51.238;9.562;2022-12-20T13:20:22;2.92;;;1.10;;
3415;SDS011;1721;51.238;9.562;2022-12-20T13:25:33;7.55;;;1.60;;
3415;SDS011;1721;51.238;9.562;2022-12-20T13:30:44;7.20;;;1.20;;
3415;SDS011;1721;51.238;9.562;2022-12-20T13:36:28;6.20;;;1.63;;
3415;SDS011;1721;51.238;9.562;2022-12-20T13:39:02;2.95;;;1.02;;
3415;SDS011;1721;51.238;9.562;2022-12-20T13:42:36;3.85;;;1.40;;
3415;SDS011;1721;51.238;9.562;2022-12-20T13:44:42;3.05;;;1.05;;
3415;SDS011;1721;51.238;9.562;2022-12-20T13:47:27;5.80;;;1.40;;
3415;SDS011;1721;51.238;9.562;2022-12-20T13:50:00;3.05;;;1.20;;
3415;SDS011;1721;51.238;9.562;2022-12-20T13:52:57;3.65;;;1.23;;
3415;SDS011;1721;51.238;9.562;2022-12-20T13:55:36;3.85;;;1.60;;
3415;SDS011;1721;51.238;9.562;2022-12-20T13:58:13;5.68;;;1.00;;
3415;SDS011;1721;51.238;9.562;2022-12-20T14:00:42;9.35;;;1.23;;
3415;SDS011;1721;51.238;9.562;2022-12-20T14:03:27;3.70;;;1.38;;
3415;SDS011;1721;51.238;9.562;2022-12-20T14:05:55;3.28;;;0.93;;
3415;SDS011;1721;51.238;9.562;2022-12-20T14:08:33;3.83;;;1.38;;
3415;SDS011;1721;51.238;9.562;2022-12-20T14:11:16;3.67;;;1.40;;
3415;SDS011;1721;51.238;9.562;2022-12-20T14:13:50;3.30;;;1.10;;
3415;SDS011;1721;51.238;9.562;2022-12-20T14:16:18;3.70;;;1.10;;
3415;SDS011;1721;51.238;9.562;2022-12-20T14:18:48;4.82;;;1.45;;
3415;SDS011;1721;51.238;9.562;2022-12-20T14:21:14;3.25;;;1.25;;
3415;SDS011;1721;51.238;9.562;2022-12-20T14:23:43;3.88;;;1.48;;
3415;SDS011;1721;51.238;9.562;2022-12-20T14:26:23;2.78;;;1.10;;
3415;SDS011;1721;51.238;9.562;2022-12-20T14:28:51;5.10;;;1.95;;
3415;SDS011;1721;51.238;9.562;2022-12-20T14:36:37;5.78;;;1.90;;
3415;SDS011;1721;51.238;9.562;2022-12-20T14:39:25;4.20;;;1.60;;
3415;SDS011;1721;51.238;9.562;2022-12-20T14:41:55;4.90;;;1.50;;
3415;SDS011;1721;51.238;9.562;2022-12-20T14:44:22;5.57;;;1.70;;
3415;SDS011;1721;51.238;9.562;2022-12-20T14:46:55;4.05;;;1.55;;
3415;SDS011;1721;51.238;9.562;2022-12-20T14:49:48;5.32;;;1.23;;
3415;SDS011;1721;51.238;9.562;2022-12-20T14:52:24;6.53;;;1.80;;
3415;SDS011;1721;51.238;9.562;2022-12-20T14:54:59;3.58;;;1.60;;
3415;SDS011;1721;51.238;9.562;2022-12-20T14:57:31;3.22;;;1.05;;
3415;SDS011;1721;51.238;9.562;2022-12-20T15:10:46;4.50;;;1.27;;
3415;SDS011;1721;51.238;9.562;2022-12-20T15:13:18;4.47;;;1.35;;
3415;SDS011;1721;51.238;9.562;2022-12-20T15:15:46;2.75;;;0.98;;
3415;SDS011;1721;51.238;9.562;2022-12-20T15:18:12;11.43;;;1.87;;
3415;SDS011;1721;51.238;9.562;2022-12-20T15:20:43;5.32;;;1.85;;
3415;SDS011;1721;51.238;9.562;2022-12-20T15:23:15;4.57;;;1.40;;
3415;SDS011;1721;51.238;9.562;2022-12-20T15:25:43;4.05;;;1.40;;
3415;SDS011;1721;51.238;9.562;2022-12-20T15:28:27;5.55;;;1.38;;
3415;SDS011;1721;51.238;9.562;2022-12-20T15:30:53;4.28;;;1.77;;
3415;SDS011;1721;51.238;9.562;2022-12-20T15:33:20;7.70;;;1.30;;
3415;SDS011;1721;51.238;9.562;2022-12-20T15:35:48;4.40;;;1.88;;
3415;SDS011;1721;51.238;9.562;2022-12-20T15:38:15;5.13;;;1.83;;
3415;SDS011;1721;51.238;9.562;2022-12-20T15:40:49;4.47;;;1.60;;
3415;SDS011;1721;51.238;9.562;2022-12-20T15:43:18;3.45;;;1.23;;
3415;SDS011;1721;51.238;9.562;2022-12-20T15:45:46;6.75;;;1.67;;
3415;SDS011;1721;51.238;9.562;2022-12-20T15:48:18;4.00;;;1.42;;
3415;SDS011;1721;51.238;9.562;2022-12-20T15:50:50;6.45;;;1.60;;
3415;SDS011;1721;51.238;9.562;2022-12-20T15:53:18;4.97;;;1.23;;
3415;SDS011;1721;51.238;9.562;2022-12-20T15:56:04;3.67;;;1.50;;
3415;SDS011;1721;51.238;9.562;2022-12-20T15:58:30;5.53;;;2.17;;
3415;SDS011;1721;51.238;9.562;2022-12-20T16:00:57;3.03;;;1.20;;
3415;SDS011;1721;51.238;9.562;2022-12-20T16:03:29;5.45;;;1.80;;
3415;SDS011;1721;51.238;9.562;2022-12-20T16:05:56;6.03;;;1.50;;
3415;SDS011;1721;51.238;9.562;2022-12-20T16:08:21;5.53;;;1.55;;
3415;SDS011;1721;51.238;9.562;2022-12-20T16:10:48;4.40;;;1.70;;
3415;SDS011;1721;51.238;9.562;2022-12-20T16:13:19;5.07;;;1.80;;
3415;SDS011;1721;51.238;9.562;2022-12-20T16:15:47;3.60;;;1.20;;
3415;SDS011;1721;51.238;9.562;2022-12-20T16:18:14;3.13;;;1.30;;
3415;SDS011;1721;51.238;9.562;2022-12-20T16:20:40;4.68;;;1.40;;
3415;SDS011;1721;51.238;9.562;2022-12-20T16:23:16;3.77;;;1.40;;
3415;SDS011;1721;51.238;9.562;2022-12-20T16:25:43;8.23;;;2.40;;
3415;SDS011;1721;51.238;9.562;2022-12-20T16:28:09;3.50;;;1.60;;
3415;SDS011;1721;51.238;9.562;2022-12-20T16:30:35;3.83;;;1.50;;
3415;SDS011;1721;51.238;9.562;2022-12-20T16:33:01;4.10;;;1.50;;
3415;SDS011;1721;51.238;9.562;2022-12-20T16:37:55;4.43;;;1.60;;
3415;SDS011;1721;51.238;9.562;2022-12-20T16:40:22;4.57;;;1.60;;
3415;SDS011;1721;51.238;9.562;2022-12-20T16:42:50;6.15;;;1.35;;
3415;SDS011;1721;51.238;9.562;2022-12-20T16:45:18;9.83;;;2.17;;
3415;SDS011;1721;51.238;9.562;2022-12-20T16:47:46;4.35;;;1.33;;
3415;SDS011;1721;51.238;9.562;2022-12-20T16:50:12;4.25;;;1.42;;
3415;SDS011;1721;51.238;9.562;2022-12-20T16:52:38;4.80;;;1.90;;
3415;SDS011;1721;51.238;9.562;2022-12-20T16:55:04;4.70;;;1.80;;
3415;SDS011;1721;51.238;9.562;2022-12-20T16:57:30;5.32;;;1.50;;
3415;SDS011;1721;51.238;9.562;2022-12-20T16:59:56;4.40;;;1.57;;
3415;SDS011;1721;51.238;9.562;2022-12-20T17:04:47;5.13;;;1.90;;
3415;SDS011;1721;51.238;9.562;2022-12-20T17:07:13;4.50;;;1.60;;
3415;SDS011;1721;51.238;9.562;2022-12-20T17:09:39;5.53;;;1.67;;
3415;SDS011;1721;51.238;9.562;2022-12-20T17:12:08;3.67;;;1.40;;
3415;SDS011;1721;51.238;9.562;2022-12-20T17:14:41;2.90;;;1.00;;
3415;SDS011;1721;51.238;9.562;2022-12-20T17:17:06;4.50;;;1.90;;
3415;SDS011;1721;51.238;9.562;2022-12-20T17:19:32;2.80;;;1.20;;
3415;SDS011;1721;51.238;9.562;2022-12-20T17:21:58;4.37;;;1.70;;
3415;SDS011;1721;51.238;9.562;2022-12-20T17:24:24;5.13;;;2.03;;
3415;SDS011;1721;51.238;9.562;2022-12-20T17:26:50;4.33;;;1.30;;
3415;SDS011;1721;51.238;9.562;2022-12-20T17:29:15;6.20;;;2.37;;
3415;SDS011;1721;51.238;9.562;2022-12-20T17:31:42;4.78;;;1.30;;